createdAt,value
2023-03-18T00:00:12.702Z,2.22
2023-03-18T00:02:40.412Z,2.67
2023-03-18T00:05:08.509Z,2.40
2023-03-18T00:07:36.314Z,2.50
2023-03-18T00:10:07.702Z,2.63
2023-03-18T00:12:34.476Z,2.10
2023-03-18T00:15:01.196Z,2.40
2023-03-18T00:17:27.723Z,2.47
2023-03-18T00:19:55.137Z,2.30
2023-03-18T00:22:21.823Z,2.03
2023-03-18T00:24:49.087Z,2.22
2023-03-18T00:27:15.726Z,2.75
2023-03-18T00:29:43.915Z,3.00
2023-03-18T00:32:10.943Z,2.40
2023-03-18T00:34:37.390Z,2.30
2023-03-18T00:37:03.787Z,2.75
2023-03-18T00:39:33.040Z,2.22
2023-03-18T00:42:08.056Z,2.35
2023-03-18T00:44:34.511Z,2.30
2023-03-18T00:47:01.423Z,2.20
2023-03-18T00:49:27.910Z,2.55
2023-03-18T00:51:54.339Z,2.03
2023-03-18T00:54:21.011Z,2.40
2023-03-18T00:56:47.733Z,2.20
2023-03-18T00:59:14.312Z,2.65
2023-03-18T01:01:40.837Z,2.10
2023-03-18T01:04:07.935Z,2.20
2023-03-18T01:06:36.422Z,2.00
2023-03-18T01:09:05.211Z,2.10
2023-03-18T01:11:31.740Z,1.90
2023-03-18T01:13:59.493Z,2.10
2023-03-18T01:16:26.161Z,2.13
2023-03-18T01:18:53.852Z,1.90
2023-03-18T01:21:20.405Z,2.05
2023-03-18T01:23:47.103Z,2.38
2023-03-18T01:26:13.733Z,2.25
2023-03-18T01:28:41.297Z,2.28
2023-03-18T01:31:08.471Z,2.22
2023-03-18T01:33:35.691Z,2.42
2023-03-18T01:36:03.975Z,2.20
2023-03-18T01:38:31.654Z,2.10
2023-03-18T01:41:00.267Z,2.20
2023-03-18T01:43:35.751Z,2.20
2023-03-18T01:46:24.728Z,2.20
2023-03-18T01:48:52.082Z,2.20
2023-03-18T01:51:20.256Z,2.15
2023-03-18T01:53:49.774Z,2.42
2023-03-18T01:56:17.976Z,2.05
2023-03-18T01:58:48.707Z,2.80
2023-03-18T02:01:26.303Z,2.30
2023-03-18T02:03:53.563Z,2.00
2023-03-18T02:06:20.068Z,1.95
2023-03-18T02:08:47.840Z,2.40
2023-03-18T02:11:14.451Z,2.20
2023-03-18T02:13:43.942Z,1.98
2023-03-18T02:16:18.494Z,2.53
2023-03-18T02:18:50.370Z,2.05
2023-03-18T02:21:33.156Z,2.22
2023-03-18T02:24:27.561Z,2.03
2023-03-18T02:27:04.578Z,2.17
2023-03-18T02:29:34.757Z,2.50
2023-03-18T02:32:04.367Z,2.20
2023-03-18T02:34:31.755Z,2.10
2023-03-18T02:36:58.430Z,2.15
2023-03-18T02:39:25.914Z,2.30
2023-03-18T02:41:53.206Z,1.98
2023-03-18T02:44:21.259Z,2.20
2023-03-18T02:46:47.684Z,2.42
2023-03-18T02:49:15.438Z,2.30
2023-03-18T02:51:41.983Z,1.95
2023-03-18T02:54:17.633Z,2.15
2023-03-18T02:56:44.713Z,2.13
2023-03-18T02:59:11.999Z,2.00
2023-03-18T03:01:40.431Z,2.42
2023-03-18T03:04:07.624Z,2.10
2023-03-18T03:06:35.237Z,2.15
2023-03-18T03:09:03.730Z,2.25
2023-03-18T03:11:30.247Z,2.50
2023-03-18T03:13:56.709Z,2.20
2023-03-18T03:16:23.206Z,2.38
2023-03-18T03:18:50.593Z,2.67
2023-03-18T03:21:17.070Z,2.35
2023-03-18T03:23:45.280Z,2.50
2023-03-18T03:26:12.075Z,2.13
2023-03-18T03:28:38.496Z,2.30
2023-03-18T03:31:05.421Z,2.42
2023-03-18T03:33:31.840Z,2.50
2023-03-18T03:35:58.412Z,7.10
2023-03-18T03:38:25.526Z,7.28
2023-03-18T03:40:53.829Z,4.97
2023-03-18T03:43:20.998Z,3.90
2023-03-18T03:45:47.438Z,4.32
2023-03-18T03:48:14.433Z,4.00
2023-03-18T03:50:41.093Z,5.50
2023-03-18T03:53:08.251Z,4.95
2023-03-18T03:55:35.466Z,5.53
2023-03-18T03:58:02.300Z,5.32
2023-03-18T04:00:28.978Z,4.78
2023-03-18T04:02:56.365Z,5.00
2023-03-18T04:05:24.581Z,4.13
2023-03-18T04:07:52.444Z,3.47
2023-03-18T04:10:21.105Z,3.75
2023-03-18T04:12:48.790Z,3.38
2023-03-18T04:15:17.310Z,3.75
2023-03-18T04:17:44.531Z,4.07
2023-03-18T04:20:11.898Z,4.00
2023-03-18T04:22:39.135Z,4.00
2023-03-18T04:25:06.063Z,3.35
2023-03-18T04:27:33.076Z,3.47
2023-03-18T04:30:02.618Z,3.53
2023-03-18T04:32:29.133Z,3.25
2023-03-18T04:34:55.643Z,4.00
2023-03-18T04:37:22.515Z,3.42
2023-03-18T04:39:48.991Z,3.50
2023-03-18T04:42:16.281Z,3.65
2023-03-18T04:44:42.706Z,3.33
2023-03-18T04:47:09.227Z,3.42
2023-03-18T04:49:35.761Z,3.42
2023-03-18T04:52:02.303Z,3.38
2023-03-18T04:54:28.852Z,3.28
2023-03-18T04:56:55.422Z,3.38
2023-03-18T04:59:21.861Z,3.33
2023-03-18T05:01:50.275Z,3.55
2023-03-18T05:04:16.960Z,3.35
2023-03-18T05:06:43.486Z,3.35
2023-03-18T05:09:09.949Z,2.95
2023-03-18T05:11:36.527Z,3.25
2023-03-18T05:14:02.969Z,3.03
2023-03-18T05:16:30.137Z,3.00
2023-03-18T05:18:56.701Z,3.17
2023-03-18T05:21:23.166Z,3.15
2023-03-18T05:23:49.588Z,3.10
2023-03-18T05:26:17.139Z,3.35
2023-03-18T05:28:43.564Z,3.63
2023-03-18T05:31:10.014Z,3.15
2023-03-18T05:33:36.598Z,3.33
2023-03-18T05:36:03.424Z,3.08
2023-03-18T05:38:30.004Z,3.30
2023-03-18T05:40:56.474Z,3.10
2023-03-18T05:43:23.605Z,3.53
2023-03-18T05:45:51.196Z,2.90
2023-03-18T05:48:17.699Z,3.05
2023-03-18T05:50:44.179Z,3.20
2023-03-18T05:53:16.331Z,3.15
2023-03-18T05:55:43.310Z,3.20
2023-03-18T05:58:11.056Z,3.20
2023-03-18T06:00:38.060Z,3.72
2023-03-18T06:03:05.273Z,3.17
2023-03-18T06:05:31.996Z,3.17
2023-03-18T06:07:59.479Z,4.07
2023-03-18T06:10:26.240Z,3.05
2023-03-18T06:12:55.324Z,3.53
2023-03-18T06:15:22.731Z,3.40
2023-03-18T06:17:49.325Z,4.25
2023-03-18T06:20:18.636Z,4.10
2023-03-18T06:22:49.443Z,4.57
2023-03-18T06:25:18.406Z,3.88
2023-03-18T06:27:47.875Z,4.85
2023-03-18T06:30:15.384Z,5.03
2023-03-18T06:32:41.815Z,5.93
2023-03-18T06:35:08.902Z,6.53
2023-03-18T06:37:35.355Z,5.65
2023-03-18T06:40:02.281Z,5.50
2023-03-18T06:42:28.803Z,5.93
2023-03-18T06:44:55.272Z,6.70
2023-03-18T06:47:22.772Z,5.20
2023-03-18T06:49:50.866Z,5.15
2023-03-18T06:52:19.157Z,4.43
2023-03-18T06:54:46.097Z,4.95
2023-03-18T06:57:13.539Z,4.38
2023-03-18T06:59:40.753Z,5.15
2023-03-18T07:02:08.625Z,5.78
2023-03-18T07:04:35.578Z,4.65
2023-03-18T07:07:02.138Z,4.38
2023-03-18T07:09:28.623Z,4.50
2023-03-18T07:11:55.128Z,4.63
2023-03-18T07:14:21.701Z,4.28
2023-03-18T07:16:50.537Z,5.43
2023-03-18T07:19:18.198Z,4.55
2023-03-18T07:21:46.303Z,5.05
2023-03-18T07:24:12.916Z,4.85
2023-03-18T07:26:39.347Z,3.83
2023-03-18T07:29:05.993Z,4.13
2023-03-18T07:31:32.670Z,3.63
2023-03-18T07:33:59.256Z,3.83
2023-03-18T07:36:26.722Z,3.60
2023-03-18T07:38:53.255Z,3.22
2023-03-18T07:41:19.708Z,3.55
2023-03-18T07:43:46.152Z,3.65
2023-03-18T07:46:12.650Z,3.30
2023-03-18T07:48:39.129Z,3.55
2023-03-18T07:51:05.888Z,3.97
2023-03-18T07:53:32.329Z,4.40
2023-03-18T07:55:58.724Z,4.55
2023-03-18T07:58:25.811Z,4.43
2023-03-18T08:00:53.287Z,4.95
2023-03-18T08:03:19.753Z,4.53
2023-03-18T08:05:46.207Z,4.07
2023-03-18T08:08:12.755Z,4.32
2023-03-18T08:10:39.187Z,4.18
2023-03-18T08:13:06.117Z,4.45
2023-03-18T08:15:32.741Z,4.65
2023-03-18T08:17:59.396Z,6.53
2023-03-18T08:20:27.231Z,6.35
2023-03-18T08:22:53.729Z,4.22
2023-03-18T08:25:22.079Z,3.28
2023-03-18T08:30:15.059Z,2.97
2023-03-18T08:32:41.979Z,3.10
2023-03-18T08:35:09.912Z,2.80
2023-03-18T08:37:36.727Z,3.88
2023-03-18T08:40:05.130Z,3.13
2023-03-18T08:42:31.557Z,2.80
2023-03-18T08:44:58.171Z,2.90
2023-03-18T08:47:25.215Z,3.08
2023-03-18T08:49:51.879Z,3.22
2023-03-18T08:52:19.188Z,3.22
2023-03-18T08:54:45.873Z,3.00
2023-03-18T08:57:12.445Z,2.92
2023-03-18T08:59:38.888Z,3.38
2023-03-18T09:02:05.828Z,3.25
2023-03-18T09:04:32.742Z,3.25
2023-03-18T09:07:00.853Z,2.75
2023-03-18T09:09:40.981Z,3.30
2023-03-18T09:12:09.982Z,2.92
2023-03-18T09:14:36.452Z,3.00
2023-03-18T09:17:03.140Z,2.63
2023-03-18T09:19:29.727Z,3.00
2023-03-18T09:21:56.179Z,2.90
2023-03-18T09:24:22.657Z,3.28
2023-03-18T09:26:49.150Z,3.58
2023-03-18T09:29:15.905Z,3.10
2023-03-18T09:31:42.755Z,3.35
2023-03-18T09:34:09.986Z,3.00
2023-03-18T09:36:36.523Z,3.30
2023-03-18T09:39:03.058Z,3.60
2023-03-18T09:41:59.667Z,3.00
2023-03-18T09:44:33.457Z,2.78
2023-03-18T09:47:27.909Z,2.92
2023-03-18T09:50:14.353Z,2.45
2023-03-18T09:52:49.234Z,2.55
2023-03-18T09:55:27.370Z,2.88
2023-03-18T09:57:57.818Z,2.85
2023-03-18T10:00:36.972Z,3.00
2023-03-18T10:03:14.044Z,2.72
2023-03-18T10:05:52.246Z,2.50
2023-03-18T10:08:47.013Z,2.40
2023-03-18T10:11:33.271Z,2.50
2023-03-18T10:14:15.010Z,2.55
2023-03-18T10:17:17.923Z,3.20
2023-03-18T10:19:53.466Z,2.08
2023-03-18T10:22:38.095Z,2.33
2023-03-18T10:25:24.114Z,2.42
2023-03-18T10:28:05.828Z,1.85
2023-03-18T10:30:59.969Z,2.10
2023-03-18T10:33:44.991Z,2.17
2023-03-18T10:36:48.184Z,2.15
2023-03-18T10:39:23.899Z,2.28
2023-03-18T10:41:52.259Z,1.95
2023-03-18T10:44:24.893Z,1.90
2023-03-18T10:46:59.202Z,2.10
2023-03-18T10:49:38.692Z,1.70
2023-03-18T10:52:14.106Z,1.98
2023-03-18T10:54:42.542Z,1.85
2023-03-18T10:57:16.883Z,1.77
2023-03-18T10:59:47.634Z,1.77
2023-03-18T11:02:23.090Z,1.80
2023-03-18T11:04:58.572Z,1.73
2023-03-18T11:07:27.419Z,1.80
2023-03-18T11:09:54.918Z,2.03
2023-03-18T11:12:28.377Z,1.70
2023-03-18T11:14:56.256Z,1.85
2023-03-18T11:17:33.264Z,1.80
2023-03-18T11:20:00.888Z,1.42
2023-03-18T11:22:28.087Z,1.90
2023-03-18T11:25:13.370Z,1.45
2023-03-18T11:27:48.716Z,2.33
2023-03-18T11:30:40.691Z,1.55
2023-03-18T11:33:10.463Z,1.75
2023-03-18T11:35:44.122Z,1.45
2023-03-18T11:38:27.236Z,1.75
2023-03-18T11:40:53.650Z,2.13
2023-03-18T11:43:25.932Z,1.67
2023-03-18T11:46:00.547Z,1.85
2023-03-18T11:51:26.597Z,1.60
2023-03-18T11:53:53.537Z,1.77
2023-03-18T11:56:38.110Z,1.90
2023-03-18T11:59:15.826Z,1.85
2023-03-18T12:01:55.691Z,1.40
2023-03-18T12:04:54.648Z,1.60
2023-03-18T12:07:57.627Z,1.48
2023-03-18T12:10:29.690Z,1.95
2023-03-18T12:13:14.497Z,2.30
2023-03-18T12:15:56.009Z,1.50
2023-03-18T12:18:56.336Z,1.42
2023-03-18T12:24:25.949Z,1.60
2023-03-18T12:27:14.403Z,1.20
2023-03-18T12:29:54.285Z,1.50
2023-03-18T12:32:26.360Z,1.40
2023-03-18T12:35:24.795Z,1.40
2023-03-18T12:37:57.165Z,1.50
2023-03-18T12:40:47.122Z,1.42
2023-03-18T12:43:29.736Z,1.30
2023-03-18T12:46:04.794Z,1.42
2023-03-18T12:48:44.464Z,1.10
2023-03-18T12:51:21.512Z,1.30
2023-03-18T12:53:55.285Z,1.40
2023-03-18T12:56:29.972Z,1.13
2023-03-18T12:59:06.732Z,1.30
2023-03-18T13:01:47.520Z,1.20
2023-03-18T13:04:22.298Z,1.20
2023-03-18T13:07:02.008Z,1.20
2023-03-18T13:09:40.454Z,1.10
2023-03-18T13:12:15.509Z,1.15
2023-03-18T13:14:59.598Z,1.40
2023-03-18T13:17:33.051Z,1.30
2023-03-18T13:20:14.331Z,1.40
2023-03-18T13:22:50.773Z,1.30
2023-03-18T13:25:43.111Z,1.50
2023-03-18T13:28:31.001Z,1.30
2023-03-18T13:31:28.672Z,1.40
2023-03-18T13:34:29.204Z,0.98
2023-03-18T13:37:12.268Z,1.30
2023-03-18T13:40:01.536Z,1.38
2023-03-18T13:42:30.822Z,1.60
2023-03-18T13:45:06.854Z,1.50
2023-03-18T13:47:37.782Z,1.58
2023-03-18T13:50:25.340Z,1.73
2023-03-18T13:55:26.626Z,1.77
2023-03-18T13:58:06.144Z,1.50
2023-03-18T14:00:40.884Z,1.48
2023-03-18T14:03:17.270Z,1.58
2023-03-18T14:05:46.245Z,1.45
2023-03-18T14:08:42.879Z,1.40
2023-03-18T14:11:45.347Z,1.30
2023-03-18T14:14:54.385Z,1.50
2023-03-18T14:17:34.649Z,1.58
2023-03-18T14:20:19.204Z,1.33
2023-03-18T14:22:48.259Z,1.58
2023-03-18T14:25:17.699Z,1.40
2023-03-18T14:28:07.372Z,1.33
2023-03-18T14:30:37.322Z,1.20
2023-03-18T14:33:13.144Z,1.17
2023-03-18T14:35:57.581Z,1.40
2023-03-18T14:38:49.528Z,1.63
2023-03-18T14:41:28.707Z,1.70
2023-03-18T14:44:06.489Z,1.10
2023-03-18T14:46:37.689Z,1.10
2023-03-18T14:49:44.714Z,1.50
2023-03-18T14:52:28.533Z,1.50
2023-03-18T14:55:03.838Z,1.35
2023-03-18T14:57:30.243Z,1.55
2023-03-18T15:00:02.158Z,1.65
2023-03-18T15:02:34.238Z,1.40
2023-03-18T15:05:01.975Z,1.40
2023-03-18T15:07:35.332Z,1.50
2023-03-18T15:10:15.832Z,1.40
2023-03-18T15:12:42.268Z,1.42
2023-03-18T15:15:16.126Z,1.77
2023-03-18T15:17:50.347Z,1.40
2023-03-18T15:20:22.708Z,1.77
2023-03-18T15:22:50.092Z,1.55
2023-03-18T15:25:22.493Z,1.52
2023-03-18T15:27:50.273Z,1.17
2023-03-18T15:30:26.542Z,1.17
2023-03-18T15:33:03.697Z,1.60
2023-03-18T15:35:32.032Z,1.40
2023-03-18T15:38:19.342Z,1.58
2023-03-18T15:41:08.102Z,2.08
2023-03-18T15:43:42.525Z,1.42
2023-03-18T15:46:25.173Z,1.55
2023-03-18T15:49:01.944Z,1.52
2023-03-18T15:51:49.656Z,1.40
2023-03-18T15:54:38.323Z,1.50
2023-03-18T15:57:12.755Z,1.40
2023-03-18T15:59:39.835Z,1.60
2023-03-18T16:02:12.722Z,1.45
2023-03-18T16:04:39.211Z,1.45
2023-03-18T16:07:16.189Z,1.30
2023-03-18T16:09:42.649Z,1.40
2023-03-18T16:12:20.636Z,1.48
2023-03-18T16:14:49.095Z,1.45
2023-03-18T16:17:19.663Z,1.77
2023-03-18T16:19:54.967Z,1.50
2023-03-18T16:22:22.056Z,1.30
2023-03-18T16:24:49.153Z,1.70
2023-03-18T16:27:39.266Z,1.80
2023-03-18T16:30:07.504Z,2.03
2023-03-18T16:35:08.540Z,3.00
2023-03-18T16:37:34.984Z,1.80
2023-03-18T16:40:01.418Z,2.53
2023-03-18T16:42:28.302Z,2.78
2023-03-18T16:44:54.784Z,2.42
2023-03-18T16:47:25.325Z,2.90
2023-03-18T16:49:52.516Z,1.98
2023-03-18T16:52:19.437Z,1.60
2023-03-18T16:54:45.970Z,1.90
2023-03-18T16:57:21.511Z,2.30
2023-03-18T16:59:50.978Z,2.08
2023-03-18T17:02:32.366Z,2.22
2023-03-18T17:04:58.917Z,1.70
2023-03-18T17:07:25.385Z,2.40
2023-03-18T17:09:52.055Z,2.35
2023-03-18T17:12:18.503Z,2.60
2023-03-18T17:14:52.979Z,2.65
2023-03-18T17:17:45.884Z,2.00
2023-03-18T17:20:20.886Z,2.28
2023-03-18T17:22:48.824Z,2.40
2023-03-18T17:25:16.214Z,2.38
2023-03-18T17:27:59.336Z,1.70
2023-03-18T17:30:32.324Z,1.70
2023-03-18T17:32:58.913Z,2.03
2023-03-18T17:35:25.626Z,3.60
2023-03-18T17:37:53.952Z,2.95
2023-03-18T17:40:22.318Z,2.78
2023-03-18T17:45:34.198Z,10.23
2023-03-18T17:48:09.943Z,4.20
2023-03-18T17:50:37.030Z,3.83
2023-03-18T17:53:03.986Z,3.50
2023-03-18T17:55:30.515Z,3.72
2023-03-18T17:57:57.006Z,3.75
2023-03-18T18:00:27.297Z,3.75
2023-03-18T18:02:54.672Z,4.28
2023-03-18T18:05:23.478Z,5.10
2023-03-18T18:07:51.311Z,4.97
2023-03-18T18:10:20.484Z,6.40
2023-03-18T18:12:49.951Z,6.75
2023-03-18T18:15:26.403Z,4.28
2023-03-18T18:17:53.940Z,3.33
2023-03-18T18:20:21.864Z,3.30
2023-03-18T18:22:55.014Z,3.05
2023-03-18T18:25:25.255Z,3.50
2023-03-18T18:27:51.947Z,3.67
2023-03-18T18:30:25.629Z,2.70
2023-03-18T18:32:52.069Z,2.95
2023-03-18T18:35:21.249Z,2.88
2023-03-18T18:37:49.708Z,3.38
2023-03-18T18:40:17.954Z,3.72
2023-03-18T18:42:44.400Z,3.85
2023-03-18T18:45:18.134Z,3.50
2023-03-18T18:47:44.939Z,5.75
2023-03-18T18:50:26.371Z,4.60
2023-03-18T18:52:53.309Z,4.38
2023-03-18T18:55:20.244Z,3.83
2023-03-18T18:57:46.903Z,4.25
2023-03-18T19:00:20.741Z,4.22
2023-03-18T19:02:48.686Z,3.90
2023-03-18T19:05:16.438Z,3.50
2023-03-18T19:07:45.396Z,3.40
2023-03-18T19:10:17.354Z,3.60
2023-03-18T19:12:44.656Z,3.60
2023-03-18T19:15:14.863Z,3.83
2023-03-18T19:17:43.377Z,3.40
2023-03-18T19:20:30.518Z,4.20
2023-03-18T19:22:57.552Z,4.72
2023-03-18T19:25:25.662Z,4.25
2023-03-18T19:27:53.666Z,4.20
2023-03-18T19:30:23.366Z,3.45
2023-03-18T19:32:50.745Z,3.95
2023-03-18T19:35:17.301Z,3.60
2023-03-18T19:37:45.943Z,3.78
2023-03-18T19:40:34.105Z,3.95
2023-03-18T19:43:01.006Z,3.25
2023-03-18T19:45:27.508Z,3.30
2023-03-18T19:47:54.013Z,3.15
2023-03-18T19:50:21.501Z,2.40
2023-03-18T19:52:48.454Z,2.70
2023-03-18T19:55:16.517Z,2.80
2023-03-18T19:57:45.792Z,2.42
2023-03-18T20:00:20.283Z,2.60
2023-03-18T20:02:49.114Z,3.00
2023-03-18T20:05:19.010Z,4.95
2023-03-18T20:07:45.667Z,3.30
2023-03-18T20:10:14.153Z,3.50
2023-03-18T20:12:43.453Z,6.88
2023-03-18T20:15:27.082Z,9.60
2023-03-18T20:17:53.913Z,11.15
2023-03-18T20:20:23.926Z,9.23
2023-03-18T20:22:54.171Z,5.75
2023-03-18T20:25:24.458Z,4.50
2023-03-18T20:27:53.537Z,3.20
2023-03-18T20:30:28.626Z,2.15
2023-03-18T20:32:55.648Z,2.17
2023-03-18T20:35:27.630Z,2.10
2023-03-18T20:37:55.488Z,2.20
2023-03-18T20:46:53.929Z,3.10
2023-03-18T20:49:20.434Z,2.55
2023-03-18T20:51:46.886Z,2.85
2023-03-18T20:54:17.611Z,3.22
2023-03-18T20:56:44.529Z,3.13
2023-03-18T20:59:11.481Z,3.85
2023-03-18T21:01:55.407Z,3.80
2023-03-18T21:04:22.877Z,3.90
2023-03-18T21:06:49.241Z,4.28
2023-03-18T21:09:15.790Z,4.00
2023-03-18T21:11:46.185Z,3.80
2023-03-18T21:14:16.069Z,4.35
2023-03-18T21:16:57.592Z,4.50
2023-03-18T21:19:24.042Z,4.28
2023-03-18T21:21:50.632Z,4.70
2023-03-18T21:24:26.541Z,4.90
2023-03-18T21:27:03.716Z,4.20
2023-03-18T21:29:31.577Z,4.20
2023-03-18T21:31:57.998Z,4.25
2023-03-18T21:34:24.492Z,4.20
2023-03-18T21:36:51.200Z,4.95
2023-03-18T21:39:17.833Z,4.43
2023-03-18T21:41:44.254Z,4.97
2023-03-18T21:44:11.464Z,4.55
2023-03-18T21:46:38.076Z,4.30
2023-03-18T21:49:04.590Z,4.80
2023-03-18T21:51:41.171Z,4.80
2023-03-18T21:54:18.292Z,5.10
2023-03-18T21:56:44.717Z,3.95
2023-03-18T21:59:11.078Z,4.65
2023-03-18T22:01:37.528Z,4.82
2023-03-18T22:04:04.066Z,4.80
2023-03-18T22:06:37.634Z,4.65
2023-03-18T22:09:04.136Z,4.13
2023-03-18T22:11:30.912Z,5.45
2023-03-18T22:13:57.433Z,5.05
2023-03-18T22:16:24.020Z,5.95
2023-03-18T22:18:51.212Z,5.53
2023-03-18T22:21:20.632Z,5.00
2023-03-18T22:23:47.256Z,5.05
2023-03-18T22:26:16.224Z,5.30
2023-03-18T22:28:43.848Z,5.20
2023-03-18T22:31:17.557Z,5.20
2023-03-18T22:33:44.209Z,6.80
2023-03-18T22:36:13.097Z,4.93
2023-03-18T22:38:39.654Z,5.60
2023-03-18T22:41:06.303Z,5.72
2023-03-18T22:43:37.121Z,6.10
2023-03-18T22:46:06.709Z,5.20
2023-03-18T22:48:33.782Z,4.50
2023-03-18T22:51:00.512Z,4.25
2023-03-18T22:53:36.869Z,3.42
2023-03-18T22:56:16.387Z,3.90
2023-03-18T22:58:43.250Z,3.65
2023-03-18T23:01:15.530Z,3.47
2023-03-18T23:03:43.997Z,3.33
2023-03-18T23:06:14.972Z,3.50
2023-03-18T23:08:41.470Z,3.40
2023-03-18T23:11:07.855Z,3.42
2023-03-18T23:13:40.029Z,3.45
2023-03-18T23:16:09.187Z,4.20
2023-03-18T23:18:35.720Z,3.70
2023-03-18T23:21:02.129Z,3.80
2023-03-18T23:23:30.308Z,3.40
2023-03-18T23:25:57.293Z,4.10
2023-03-18T23:28:23.757Z,3.78
2023-03-18T23:30:52.554Z,4.40
2023-03-18T23:33:19.750Z,4.32
2023-03-18T23:35:48.112Z,3.10
2023-03-18T23:38:14.591Z,3.75
2023-03-18T23:40:41.004Z,3.97
2023-03-18T23:43:08.994Z,3.88
2023-03-18T23:45:37.754Z,3.13
2023-03-18T23:48:04.956Z,3.22
2023-03-18T23:50:31.344Z,2.60
2023-03-18T23:52:57.758Z,3.30
2023-03-18T23:55:37.978Z,4.20
2023-03-18T23:58:04.583Z,3.83
